sensor_id;sensor_type;location;lat;lon;timestamp;P1;durP1;ratioP1;P2;durP2;ratioP2
12762;SDS011;6445;52.490;13.378;2022-09-09T00:04:41;12.63;;;10.40;;
12762;SDS011;6445;52.490;13.378;2022-09-09T00:07:13;13.13;;;10.68;;
12762;SDS011;6445;52.490;13.378;2022-09-09T00:09:47;12.10;;;10.40;;
12762;SDS011;6445;52.490;13.378;2022-09-09T00:12:21;13.52;;;10.40;;
12762;SDS011;6445;52.490;13.378;2022-09-09T00:15:25;12.73;;;10.32;;
12762;SDS011;6445;52.490;13.378;2022-09-09T00:18:05;13.45;;;11.07;;
12762;SDS011;6445;52.490;13.378;2022-09-09T00:20:48;12.73;;;10.50;;
12762;SDS011;6445;52.490;13.378;2022-09-09T00:23:39;13.55;;;11.30;;
12762;SDS011;6445;52.490;13.378;2022-09-09T00:26:11;12.10;;;10.70;;
12762;SDS011;6445;52.490;13.378;2022-09-09T00:28:51;12.63;;;11.20;;
12762;SDS011;6445;52.490;13.378;2022-09-09T00:31:25;15.48;;;11.55;;
12762;SDS011;6445;52.490;13.378;2022-09-09T00:33:53;13.05;;;11.32;;
12762;SDS011;6445;52.490;13.378;2022-09-09T00:36:21;12.32;;;10.80;;
12762;SDS011;6445;52.490;13.378;2022-09-09T00:38:55;14.10;;;11.85;;
12762;SDS011;6445;52.490;13.378;2022-09-09T00:44:36;13.45;;;11.32;;
12762;SDS011;6445;52.490;13.378;2022-09-09T00:52:38;12.98;;;11.60;;
12762;SDS011;6445;52.490;13.378;2022-09-09T00:57:44;13.23;;;11.82;;
12762;SDS011;6445;52.490;13.378;2022-09-09T01:00:45;14.30;;;11.60;;
12762;SDS011;6445;52.490;13.378;2022-09-09T01:11:22;13.20;;;11.73;;
12762;SDS011;6445;52.490;13.378;2022-09-09T01:13:53;14.05;;;11.93;;
12762;SDS011;6445;52.490;13.378;2022-09-09T01:16:25;15.55;;;12.02;;
12762;SDS011;6445;52.490;13.378;2022-09-09T01:18:53;15.23;;;11.50;;
12762;SDS011;6445;52.490;13.378;2022-09-09T01:26:37;12.75;;;10.93;;
12762;SDS011;6445;52.490;13.378;2022-09-09T01:29:07;14.80;;;11.82;;
12762;SDS011;6445;52.490;13.378;2022-09-09T01:31:39;13.35;;;11.93;;
12762;SDS011;6445;52.490;13.378;2022-09-09T01:34:10;13.75;;;11.63;;
12762;SDS011;6445;52.490;13.378;2022-09-09T01:36:47;14.55;;;11.52;;
12762;SDS011;6445;52.490;13.378;2022-09-09T01:39:22;15.75;;;11.70;;
12762;SDS011;6445;52.490;13.378;2022-09-09T01:41:47;13.00;;;11.30;;
12762;SDS011;6445;52.490;13.378;2022-09-09T01:44:12;15.13;;;11.50;;
12762;SDS011;6445;52.490;13.378;2022-09-09T01:46:38;13.55;;;11.82;;
12762;SDS011;6445;52.490;13.378;2022-09-09T01:49:04;14.85;;;11.38;;
12762;SDS011;6445;52.490;13.378;2022-09-09T01:51:32;13.07;;;11.05;;
12762;SDS011;6445;52.490;13.378;2022-09-09T01:53:58;12.82;;;11.20;;
12762;SDS011;6445;52.490;13.378;2022-09-09T01:56:31;14.32;;;10.88;;
12762;SDS011;6445;52.490;13.378;2022-09-09T02:01:58;16.50;;;10.82;;
12762;SDS011;6445;52.490;13.378;2022-09-09T02:04:37;14.85;;;11.35;;
12762;SDS011;6445;52.490;13.378;2022-09-09T02:10:12;17.35;;;10.95;;
12762;SDS011;6445;52.490;13.378;2022-09-09T02:13:10;14.38;;;11.60;;
12762;SDS011;6445;52.490;13.378;2022-09-09T02:15:42;13.98;;;10.30;;
12762;SDS011;6445;52.490;13.378;2022-09-09T02:18:09;12.80;;;10.30;;
12762;SDS011;6445;52.490;13.378;2022-09-09T02:20:38;13.85;;;11.40;;
12762;SDS011;6445;52.490;13.378;2022-09-09T02:23:05;14.60;;;11.45;;
12762;SDS011;6445;52.490;13.378;2022-09-09T02:25:33;13.95;;;11.15;;
12762;SDS011;6445;52.490;13.378;2022-09-09T02:28:01;14.57;;;10.63;;
12762;SDS011;6445;52.490;13.378;2022-09-09T02:30:31;13.38;;;10.50;;
12762;SDS011;6445;52.490;13.378;2022-09-09T02:32:59;13.43;;;10.85;;
12762;SDS011;6445;52.490;13.378;2022-09-09T02:35:28;13.38;;;10.63;;
12762;SDS011;6445;52.490;13.378;2022-09-09T02:37:58;12.23;;;10.18;;
12762;SDS011;6445;52.490;13.378;2022-09-09T02:40:28;15.93;;;11.60;;
12762;SDS011;6445;52.490;13.378;2022-09-09T02:42:54;12.90;;;10.43;;
12762;SDS011;6445;52.490;13.378;2022-09-09T02:45:20;12.63;;;10.30;;
12762;SDS011;6445;52.490;13.378;2022-09-09T02:50:57;12.98;;;10.13;;
12762;SDS011;6445;52.490;13.378;2022-09-09T02:53:32;15.30;;;11.02;;
12762;SDS011;6445;52.490;13.378;2022-09-09T02:56:18;12.65;;;10.95;;
12762;SDS011;6445;52.490;13.378;2022-09-09T02:58:46;13.32;;;10.30;;
12762;SDS011;6445;52.490;13.378;2022-09-09T03:01:12;13.15;;;10.23;;
12762;SDS011;6445;52.490;13.378;2022-09-09T03:03:37;13.73;;;10.68;;
12762;SDS011;6445;52.490;13.378;2022-09-09T03:06:03;13.80;;;10.85;;
12762;SDS011;6445;52.490;13.378;2022-09-09T03:08:28;12.80;;;10.32;;
12762;SDS011;6445;52.490;13.378;2022-09-09T03:10:54;13.75;;;10.48;;
12762;SDS011;6445;52.490;13.378;2022-09-09T03:13:19;14.10;;;10.85;;
12762;SDS011;6445;52.490;13.378;2022-09-09T03:15:45;13.13;;;10.18;;
12762;SDS011;6445;52.490;13.378;2022-09-09T03:18:10;12.45;;;9.73;;
12762;SDS011;6445;52.490;13.378;2022-09-09T03:20:35;14.75;;;10.80;;
12762;SDS011;6445;52.490;13.378;2022-09-09T03:23:01;14.70;;;10.68;;
12762;SDS011;6445;52.490;13.378;2022-09-09T03:25:27;12.90;;;10.18;;
12762;SDS011;6445;52.490;13.378;2022-09-09T03:27:53;15.00;;;11.15;;
12762;SDS011;6445;52.490;13.378;2022-09-09T03:30:20;13.68;;;10.55;;
12762;SDS011;6445;52.490;13.378;2022-09-09T03:32:47;12.30;;;10.55;;
12762;SDS011;6445;52.490;13.378;2022-09-09T03:35:13;13.18;;;10.77;;
12762;SDS011;6445;52.490;13.378;2022-09-09T03:37:38;15.60;;;11.48;;
12762;SDS011;6445;52.490;13.378;2022-09-09T03:40:03;12.18;;;10.30;;
12762;SDS011;6445;52.490;13.378;2022-09-09T03:42:29;25.05;;;21.17;;
12762;SDS011;6445;52.490;13.378;2022-09-09T03:44:55;12.75;;;10.60;;
12762;SDS011;6445;52.490;13.378;2022-09-09T03:47:22;15.55;;;10.77;;
12762;SDS011;6445;52.490;13.378;2022-09-09T03:49:48;11.75;;;10.13;;
12762;SDS011;6445;52.490;13.378;2022-09-09T03:52:13;12.48;;;9.90;;
12762;SDS011;6445;52.490;13.378;2022-09-09T03:54:39;14.48;;;9.40;;
12762;SDS011;6445;52.490;13.378;2022-09-09T03:57:04;12.75;;;9.60;;
12762;SDS011;6445;52.490;13.378;2022-09-09T03:59:30;11.52;;;8.98;;
12762;SDS011;6445;52.490;13.378;2022-09-09T04:01:55;12.18;;;9.65;;
12762;SDS011;6445;52.490;13.378;2022-09-09T04:04:22;10.32;;;9.20;;
12762;SDS011;6445;52.490;13.378;2022-09-09T04:06:47;11.57;;;8.57;;
12762;SDS011;6445;52.490;13.378;2022-09-09T04:09:13;10.98;;;8.73;;
12762;SDS011;6445;52.490;13.378;2022-09-09T04:11:39;11.45;;;9.13;;
12762;SDS011;6445;52.490;13.378;2022-09-09T04:14:04;13.85;;;9.60;;
12762;SDS011;6445;52.490;13.378;2022-09-09T04:16:31;13.45;;;9.13;;
12762;SDS011;6445;52.490;13.378;2022-09-09T04:18:57;9.98;;;8.27;;
12762;SDS011;6445;52.490;13.378;2022-09-09T04:21:23;11.93;;;9.48;;
12762;SDS011;6445;52.490;13.378;2022-09-09T04:23:48;9.90;;;8.48;;
12762;SDS011;6445;52.490;13.378;2022-09-09T04:26:13;9.18;;;8.27;;
12762;SDS011;6445;52.490;13.378;2022-09-09T04:28:39;14.43;;;9.18;;
12762;SDS011;6445;52.490;13.378;2022-09-09T04:31:08;11.15;;;8.95;;
12762;SDS011;6445;52.490;13.378;2022-09-09T04:33:35;9.57;;;8.68;;
12762;SDS011;6445;52.490;13.378;2022-09-09T04:36:02;12.68;;;8.77;;
12762;SDS011;6445;52.490;13.378;2022-09-09T04:38:27;12.00;;;9.15;;
12762;SDS011;6445;52.490;13.378;2022-09-09T04:40:52;9.95;;;8.43;;
12762;SDS011;6445;52.490;13.378;2022-09-09T04:43:18;9.93;;;8.80;;
12762;SDS011;6445;52.490;13.378;2022-09-09T04:45:46;12.40;;;9.45;;
12762;SDS011;6445;52.490;13.378;2022-09-09T04:48:13;10.23;;;8.88;;
12762;SDS011;6445;52.490;13.378;2022-09-09T04:50:39;12.20;;;9.02;;
12762;SDS011;6445;52.490;13.378;2022-09-09T04:53:05;11.60;;;8.55;;
12762;SDS011;6445;52.490;13.378;2022-09-09T04:55:31;11.98;;;8.63;;
12762;SDS011;6445;52.490;13.378;2022-09-09T04:58:02;10.23;;;9.07;;
12762;SDS011;6445;52.490;13.378;2022-09-09T05:00:32;9.38;;;8.43;;
12762;SDS011;6445;52.490;13.378;2022-09-09T05:03:01;10.88;;;8.95;;
12762;SDS011;6445;52.490;13.378;2022-09-09T05:05:29;12.70;;;9.88;;
12762;SDS011;6445;52.490;13.378;2022-09-09T05:07:54;10.85;;;9.32;;
12762;SDS011;6445;52.490;13.378;2022-09-09T05:10:19;12.30;;;10.18;;
12762;SDS011;6445;52.490;13.378;2022-09-09T05:12:51;9.55;;;8.30;;
12762;SDS011;6445;52.490;13.378;2022-09-09T05:15:17;8.23;;;7.38;;
12762;SDS011;6445;52.490;13.378;2022-09-09T05:17:43;6.95;;;6.20;;
12762;SDS011;6445;52.490;13.378;2022-09-09T05:20:08;7.85;;;5.40;;
12762;SDS011;6445;52.490;13.378;2022-09-09T05:22:34;8.68;;;4.68;;
12762;SDS011;6445;52.490;13.378;2022-09-09T05:24:59;6.93;;;4.10;;
12762;SDS011;6445;52.490;13.378;2022-09-09T05:27:26;5.35;;;4.25;;
12762;SDS011;6445;52.490;13.378;2022-09-09T05:29:51;5.72;;;4.05;;
12762;SDS011;6445;52.490;13.378;2022-09-09T05:32:16;5.97;;;3.53;;
12762;SDS011;6445;52.490;13.378;2022-09-09T05:34:42;4.10;;;3.72;;
12762;SDS011;6445;52.490;13.378;2022-09-09T05:37:07;5.10;;;3.35;;
12762;SDS011;6445;52.490;13.378;2022-09-09T05:39:32;5.50;;;3.50;;
12762;SDS011;6445;52.490;13.378;2022-09-09T05:41:58;5.10;;;3.25;;
12762;SDS011;6445;52.490;13.378;2022-09-09T05:44:24;3.97;;;3.42;;
12762;SDS011;6445;52.490;13.378;2022-09-09T05:46:52;4.43;;;3.45;;
12762;SDS011;6445;52.490;13.378;2022-09-09T05:49:18;4.18;;;3.08;;
12762;SDS011;6445;52.490;13.378;2022-09-09T05:51:43;3.65;;;3.00;;
12762;SDS011;6445;52.490;13.378;2022-09-09T05:54:09;5.13;;;2.80;;
12762;SDS011;6445;52.490;13.378;2022-09-09T05:56:34;4.60;;;3.03;;
12762;SDS011;6445;52.490;13.378;2022-09-09T05:58:59;4.97;;;3.17;;
12762;SDS011;6445;52.490;13.378;2022-09-09T06:01:26;3.78;;;2.80;;
12762;SDS011;6445;52.490;13.378;2022-09-09T06:03:54;4.18;;;2.95;;
12762;SDS011;6445;52.490;13.378;2022-09-09T06:06:20;3.45;;;2.92;;
12762;SDS011;6445;52.490;13.378;2022-09-09T06:08:48;3.35;;;2.42;;
12762;SDS011;6445;52.490;13.378;2022-09-09T06:11:17;6.05;;;2.83;;
12762;SDS011;6445;52.490;13.378;2022-09-09T06:13:44;3.10;;;2.50;;
12762;SDS011;6445;52.490;13.378;2022-09-09T06:16:10;7.30;;;2.72;;
12762;SDS011;6445;52.490;13.378;2022-09-09T06:18:36;4.93;;;2.50;;
12762;SDS011;6445;52.490;13.378;2022-09-09T06:21:03;3.20;;;2.13;;
12762;SDS011;6445;52.490;13.378;2022-09-09T06:23:30;5.43;;;2.45;;
12762;SDS011;6445;52.490;13.378;2022-09-09T06:26:02;3.42;;;2.50;;
12762;SDS011;6445;52.490;13.378;2022-09-09T06:28:33;2.85;;;2.53;;
12762;SDS011;6445;52.490;13.378;2022-09-09T06:31:03;4.05;;;2.28;;
12762;SDS011;6445;52.490;13.378;2022-09-09T06:33:31;3.95;;;2.22;;
12762;SDS011;6445;52.490;13.378;2022-09-09T06:35:59;3.35;;;2.42;;
12762;SDS011;6445;52.490;13.378;2022-09-09T06:38:24;4.22;;;2.60;;
12762;SDS011;6445;52.490;13.378;2022-09-09T06:40:50;5.72;;;2.45;;
12762;SDS011;6445;52.490;13.378;2022-09-09T06:43:23;7.30;;;2.60;;
12762;SDS011;6445;52.490;13.378;2022-09-09T06:45:59;5.13;;;2.78;;
12762;SDS011;6445;52.490;13.378;2022-09-09T06:48:26;5.18;;;3.05;;
12762;SDS011;6445;52.490;13.378;2022-09-09T06:53:30;4.75;;;2.80;;
12762;SDS011;6445;52.490;13.378;2022-09-09T06:55:58;2.47;;;2.28;;
12762;SDS011;6445;52.490;13.378;2022-09-09T06:58:23;4.75;;;2.80;;
12762;SDS011;6445;52.490;13.378;2022-09-09T07:00:49;4.97;;;2.75;;
12762;SDS011;6445;52.490;13.378;2022-09-09T07:03:14;6.57;;;3.60;;
12762;SDS011;6445;52.490;13.378;2022-09-09T07:05:39;5.60;;;3.90;;
12762;SDS011;6445;52.490;13.378;2022-09-09T07:08:05;3.22;;;2.40;;
12762;SDS011;6445;52.490;13.378;2022-09-09T07:10:30;6.88;;;2.80;;
12762;SDS011;6445;52.490;13.378;2022-09-09T07:12:56;3.25;;;2.05;;
12762;SDS011;6445;52.490;13.378;2022-09-09T07:15:21;4.60;;;2.10;;
12762;SDS011;6445;52.490;13.378;2022-09-09T07:17:47;6.03;;;2.15;;
12762;SDS011;6445;52.490;13.378;2022-09-09T07:20:13;3.80;;;2.40;;
12762;SDS011;6445;52.490;13.378;2022-09-09T07:22:40;4.50;;;2.20;;
12762;SDS011;6445;52.490;13.378;2022-09-09T07:25:06;3.20;;;2.00;;
12762;SDS011;6445;52.490;13.378;2022-09-09T07:27:32;4.38;;;2.28;;
12762;SDS011;6445;52.490;13.378;2022-09-09T07:29:57;3.03;;;1.70;;
12762;SDS011;6445;52.490;13.378;2022-09-09T07:32:22;4.40;;;1.77;;
12762;SDS011;6445;52.490;13.378;2022-09-09T07:34:48;3.55;;;1.90;;
12762;SDS011;6445;52.490;13.378;2022-09-09T07:37:15;4.93;;;2.10;;
12762;SDS011;6445;52.490;13.378;2022-09-09T07:39:40;4.40;;;2.10;;
12762;SDS011;6445;52.490;13.378;2022-09-09T07:42:06;3.83;;;2.20;;
12762;SDS011;6445;52.490;13.378;2022-09-09T07:44:31;2.58;;;1.88;;
12762;SDS011;6445;52.490;13.378;2022-09-09T07:47:00;4.97;;;1.80;;
12762;SDS011;6445;52.490;13.378;2022-09-09T07:49:25;4.82;;;2.17;;
12762;SDS011;6445;52.490;13.378;2022-09-09T07:51:51;2.83;;;1.77;;
12762;SDS011;6445;52.490;13.378;2022-09-09T07:54:17;2.78;;;1.80;;
12762;SDS011;6445;52.490;13.378;2022-09-09T07:56:48;3.13;;;2.00;;
12762;SDS011;6445;52.490;13.378;2022-09-09T07:59:14;3.45;;;1.60;;
12762;SDS011;6445;52.490;13.378;2022-09-09T08:01:41;3.78;;;1.98;;
12762;SDS011;6445;52.490;13.378;2022-09-09T08:04:09;4.90;;;2.00;;
12762;SDS011;6445;52.490;13.378;2022-09-09T08:06:41;4.95;;;1.80;;
12762;SDS011;6445;52.490;13.378;2022-09-09T08:09:09;5.47;;;1.70;;
12762;SDS011;6445;52.490;13.378;2022-09-09T08:11:34;3.10;;;1.67;;
12762;SDS011;6445;52.490;13.378;2022-09-09T08:14:01;4.85;;;2.03;;
12762;SDS011;6445;52.490;13.378;2022-09-09T08:16:28;2.13;;;1.50;;
12762;SDS011;6445;52.490;13.378;2022-09-09T08:18:55;3.42;;;1.90;;
12762;SDS011;6445;52.490;13.378;2022-09-09T08:21:22;3.78;;;1.60;;
12762;SDS011;6445;52.490;13.378;2022-09-09T08:23:52;4.78;;;1.98;;
12762;SDS011;6445;52.490;13.378;2022-09-09T08:26:23;3.05;;;1.60;;
12762;SDS011;6445;52.490;13.378;2022-09-09T08:28:50;2.63;;;1.52;;
12762;SDS011;6445;52.490;13.378;2022-09-09T08:31:21;3.90;;;1.98;;
12762;SDS011;6445;52.490;13.378;2022-09-09T08:33:47;5.05;;;1.73;;
12762;SDS011;6445;52.490;13.378;2022-09-09T08:36:15;3.97;;;1.90;;
12762;SDS011;6445;52.490;13.378;2022-09-09T08:38:42;2.85;;;1.85;;
12762;SDS011;6445;52.490;13.378;2022-09-09T08:41:16;5.13;;;1.83;;
12762;SDS011;6445;52.490;13.378;2022-09-09T08:44:00;4.72;;;1.98;;
12762;SDS011;6445;52.490;13.378;2022-09-09T08:46:34;5.97;;;1.90;;
12762;SDS011;6445;52.490;13.378;2022-09-09T08:51:56;4.57;;;1.85;;
12762;SDS011;6445;52.490;13.378;2022-09-09T08:54:22;5.40;;;1.80;;
12762;SDS011;6445;52.490;13.378;2022-09-09T08:56:48;3.08;;;1.80;;
12762;SDS011;6445;52.490;13.378;2022-09-09T08:59:15;6.18;;;2.00;;
12762;SDS011;6445;52.490;13.378;2022-09-09T09:04:26;5.25;;;2.00;;
12762;SDS011;6445;52.490;13.378;2022-09-09T09:10:05;5.28;;;1.77;;
12762;SDS011;6445;52.490;13.378;2022-09-09T09:12:41;5.72;;;1.92;;
12762;SDS011;6445;52.490;13.378;2022-09-09T09:15:19;5.97;;;1.92;;
12762;SDS011;6445;52.490;13.378;2022-09-09T09:17:47;4.57;;;2.00;;
12762;SDS011;6445;52.490;13.378;2022-09-09T09:20:14;4.38;;;1.73;;
12762;SDS011;6445;52.490;13.378;2022-09-09T09:22:48;2.47;;;1.48;;
12762;SDS011;6445;52.490;13.378;2022-09-09T09:25:17;60.22;;;49.80;;
12762;SDS011;6445;52.490;13.378;2022-09-09T09:30:14;3.27;;;2.03;;
12762;SDS011;6445;52.490;13.378;2022-09-09T09:35:25;3.65;;;2.10;;
12762;SDS011;6445;52.490;13.378;2022-09-09T09:37:50;3.67;;;1.75;;
12762;SDS011;6445;52.490;13.378;2022-09-09T09:40:17;2.22;;;1.67;;
12762;SDS011;6445;52.490;13.378;2022-09-09T09:42:54;4.50;;;1.80;;
12762;SDS011;6445;52.490;13.378;2022-09-09T09:45:41;4.70;;;1.80;;
12762;SDS011;6445;52.490;13.378;2022-09-09T09:48:09;4.93;;;1.90;;
12762;SDS011;6445;52.490;13.378;2022-09-09T09:50:46;3.17;;;1.60;;
12762;SDS011;6445;52.490;13.378;2022-09-09T09:53:20;3.45;;;1.38;;
12762;SDS011;6445;52.490;13.378;2022-09-09T09:55:55;4.13;;;1.50;;
12762;SDS011;6445;52.490;13.378;2022-09-09T09:58:22;2.45;;;1.52;;
12762;SDS011;6445;52.490;13.378;2022-09-09T10:00:50;3.42;;;1.75;;
12762;SDS011;6445;52.490;13.378;2022-09-09T10:03:29;4.28;;;1.92;;
12762;SDS011;6445;52.490;13.378;2022-09-09T10:05:56;9.32;;;1.70;;
12762;SDS011;6445;52.490;13.378;2022-09-09T10:08:23;4.13;;;1.50;;
12762;SDS011;6445;52.490;13.378;2022-09-09T10:10:57;12.30;;;7.88;;
12762;SDS011;6445;52.490;13.378;2022-09-09T10:19:04;4.05;;;1.90;;
12762;SDS011;6445;52.490;13.378;2022-09-09T10:24:31;2.70;;;1.60;;
12762;SDS011;6445;52.490;13.378;2022-09-09T10:30:24;6.25;;;4.10;;
12762;SDS011;6445;52.490;13.378;2022-09-09T10:36:00;2.20;;;1.25;;
12762;SDS011;6445;52.490;13.378;2022-09-09T10:38:42;4.00;;;1.40;;
12762;SDS011;6445;52.490;13.378;2022-09-09T10:41:19;2.28;;;1.23;;
12762;SDS011;6445;52.490;13.378;2022-09-09T10:50:07;3.80;;;1.50;;
12762;SDS011;6445;52.490;13.378;2022-09-09T10:53:01;4.78;;;1.35;;
12762;SDS011;6445;52.490;13.378;2022-09-09T10:55:56;3.22;;;1.50;;
12762;SDS011;6445;52.490;13.378;2022-09-09T10:58:35;2.35;;;1.30;;
12762;SDS011;6445;52.490;13.378;2022-09-09T11:01:10;6.82;;;1.63;;
12762;SDS011;6445;52.490;13.378;2022-09-09T11:03:40;2.03;;;1.20;;
12762;SDS011;6445;52.490;13.378;2022-09-09T11:06:15;4.18;;;1.73;;
12762;SDS011;6445;52.490;13.378;2022-09-09T11:08:45;3.80;;;1.80;;
12762;SDS011;6445;52.490;13.378;2022-09-09T11:11:12;2.92;;;1.55;;
12762;SDS011;6445;52.490;13.378;2022-09-09T11:13:48;4.70;;;1.75;;
12762;SDS011;6445;52.490;13.378;2022-09-09T11:19:16;2.05;;;1.60;;
12762;SDS011;6445;52.490;13.378;2022-09-09T11:21:49;2.60;;;1.50;;
12762;SDS011;6445;52.490;13.378;2022-09-09T11:24:31;4.47;;;1.40;;
12762;SDS011;6445;52.490;13.378;2022-09-09T11:27:06;3.65;;;1.45;;
12762;SDS011;6445;52.490;13.378;2022-09-09T11:35:38;3.25;;;1.63;;
12762;SDS011;6445;52.490;13.378;2022-09-09T11:38:12;4.15;;;2.17;;
12762;SDS011;6445;52.490;13.378;2022-09-09T11:40:43;3.45;;;1.45;;
12762;SDS011;6445;52.490;13.378;2022-09-09T11:45:39;2.80;;;1.17;;
12762;SDS011;6445;52.490;13.378;2022-09-09T11:48:21;2.13;;;1.40;;
12762;SDS011;6445;52.490;13.378;2022-09-09T11:50:56;3.15;;;1.60;;
12762;SDS011;6445;52.490;13.378;2022-09-09T11:53:23;1.85;;;1.15;;
12762;SDS011;6445;52.490;13.378;2022-09-09T11:58:39;3.78;;;1.20;;
12762;SDS011;6445;52.490;13.378;2022-09-09T12:01:15;2.20;;;1.08;;
12762;SDS011;6445;52.490;13.378;2022-09-09T12:03:51;4.00;;;1.40;;
12762;SDS011;6445;52.490;13.378;2022-09-09T12:08:58;2.15;;;1.15;;
12762;SDS011;6445;52.490;13.378;2022-09-09T12:11:31;3.97;;;1.33;;
12762;SDS011;6445;52.490;13.378;2022-09-09T12:13:57;3.35;;;1.20;;
12762;SDS011;6445;52.490;13.378;2022-09-09T12:16:34;4.05;;;1.38;;
12762;SDS011;6445;52.490;13.378;2022-09-09T12:19:06;2.13;;;1.13;;
12762;SDS011;6445;52.490;13.378;2022-09-09T12:21:44;3.63;;;1.20;;
12762;SDS011;6445;52.490;13.378;2022-09-09T12:24:21;2.17;;;1.20;;
12762;SDS011;6445;52.490;13.378;2022-09-09T12:27:08;3.08;;;1.20;;
12762;SDS011;6445;52.490;13.378;2022-09-09T12:29:58;5.20;;;1.33;;
12762;SDS011;6445;52.490;13.378;2022-09-09T12:32:28;5.53;;;1.45;;
12762;SDS011;6445;52.490;13.378;2022-09-09T12:34:55;4.10;;;1.30;;
12762;SDS011;6445;52.490;13.378;2022-09-09T12:39:55;4.03;;;1.30;;
12762;SDS011;6445;52.490;13.378;2022-09-09T12:42:22;4.28;;;1.05;;
12762;SDS011;6445;52.490;13.378;2022-09-09T12:44:52;3.50;;;1.40;;
12762;SDS011;6445;52.490;13.378;2022-09-09T12:47:20;1.73;;;1.10;;
12762;SDS011;6445;52.490;13.378;2022-09-09T12:49:50;1.90;;;0.98;;
12762;SDS011;6445;52.490;13.378;2022-09-09T12:52:23;4.32;;;1.45;;
12762;SDS011;6445;52.490;13.378;2022-09-09T12:54:55;3.42;;;1.50;;
12762;SDS011;6445;52.490;13.378;2022-09-09T12:57:22;2.30;;;1.30;;
12762;SDS011;6445;52.490;13.378;2022-09-09T12:59:52;2.60;;;0.90;;
12762;SDS011;6445;52.490;13.378;2022-09-09T13:02:28;3.80;;;1.00;;
12762;SDS011;6445;52.490;13.378;2022-09-09T13:04:54;2.97;;;1.30;;
12762;SDS011;6445;52.490;13.378;2022-09-09T13:07:32;2.75;;;1.15;;
12762;SDS011;6445;52.490;13.378;2022-09-09T13:09:57;2.63;;;1.30;;
12762;SDS011;6445;52.490;13.378;2022-09-09T13:12:22;4.78;;;1.27;;
12762;SDS011;6445;52.490;13.378;2022-09-09T13:14:49;2.05;;;1.38;;
12762;SDS011;6445;52.490;13.378;2022-09-09T13:17:21;2.90;;;1.30;;
12762;SDS011;6445;52.490;13.378;2022-09-09T13:19:48;8.60;;;6.35;;
12762;SDS011;6445;52.490;13.378;2022-09-09T13:22:22;3.28;;;1.20;;
12762;SDS011;6445;52.490;13.378;2022-09-09T13:24:58;2.35;;;1.10;;
12762;SDS011;6445;52.490;13.378;2022-09-09T13:27:34;3.17;;;1.02;;
12762;SDS011;6445;52.490;13.378;2022-09-09T13:30:19;2.28;;;1.05;;
12762;SDS011;6445;52.490;13.378;2022-09-09T13:32:47;4.00;;;1.30;;
12762;SDS011;6445;52.490;13.378;2022-09-09T13:35:24;4.60;;;1.27;;
12762;SDS011;6445;52.490;13.378;2022-09-09T13:37:50;2.55;;;1.10;;
12762;SDS011;6445;52.490;13.378;2022-09-09T13:40:19;2.55;;;1.85;;
12762;SDS011;6445;52.490;13.378;2022-09-09T13:42:46;2.58;;;0.90;;
12762;SDS011;6445;52.490;13.378;2022-09-09T13:45:16;3.60;;;1.00;;
12762;SDS011;6445;52.490;13.378;2022-09-09T13:47:45;3.40;;;1.30;;
12762;SDS011;6445;52.490;13.378;2022-09-09T13:50:19;13.52;;;11.40;;
12762;SDS011;6445;52.490;13.378;2022-09-09T13:52:46;2.30;;;1.30;;
12762;SDS011;6445;52.490;13.378;2022-09-09T13:55:12;2.05;;;1.15;;
12762;SDS011;6445;52.490;13.378;2022-09-09T13:57:37;2.67;;;1.25;;
12762;SDS011;6445;52.490;13.378;2022-09-09T14:00:03;4.57;;;1.40;;
12762;SDS011;6445;52.490;13.378;2022-09-09T14:02:28;4.50;;;1.30;;
12762;SDS011;6445;52.490;13.378;2022-09-09T14:04:54;2.53;;;1.42;;
12762;SDS011;6445;52.490;13.378;2022-09-09T14:07:20;4.28;;;1.35;;
12762;SDS011;6445;52.490;13.378;2022-09-09T14:09:46;2.58;;;1.20;;
12762;SDS011;6445;52.490;13.378;2022-09-09T14:12:14;5.47;;;1.48;;
12762;SDS011;6445;52.490;13.378;2022-09-09T14:14:41;2.75;;;1.13;;
12762;SDS011;6445;52.490;13.378;2022-09-09T14:17:09;6.93;;;1.30;;
12762;SDS011;6445;52.490;13.378;2022-09-09T14:19:34;2.97;;;1.40;;
12762;SDS011;6445;52.490;13.378;2022-09-09T14:22:01;4.57;;;1.20;;
12762;SDS011;6445;52.490;13.378;2022-09-09T14:24:27;2.15;;;1.13;;
12762;SDS011;6445;52.490;13.378;2022-09-09T14:26:53;3.55;;;1.58;;
12762;SDS011;6445;52.490;13.378;2022-09-09T14:29:18;4.40;;;2.50;;
12762;SDS011;6445;52.490;13.378;2022-09-09T14:31:43;3.15;;;1.10;;
12762;SDS011;6445;52.490;13.378;2022-09-09T14:34:09;3.95;;;1.30;;
12762;SDS011;6445;52.490;13.378;2022-09-09T14:36:35;3.28;;;1.35;;
12762;SDS011;6445;52.490;13.378;2022-09-09T14:39:01;2.63;;;1.13;;
12762;SDS011;6445;52.490;13.378;2022-09-09T14:41:26;3.78;;;1.65;;
12762;SDS011;6445;52.490;13.378;2022-09-09T14:43:52;1.80;;;1.10;;
12762;SDS011;6445;52.490;13.378;2022-09-09T14:46:19;2.88;;;1.27;;
12762;SDS011;6445;52.490;13.378;2022-09-09T14:48:45;3.65;;;1.20;;
12762;SDS011;6445;52.490;13.378;2022-09-09T14:51:23;3.30;;;1.40;;
12762;SDS011;6445;52.490;13.378;2022-09-09T14:53:50;7.07;;;1.95;;
12762;SDS011;6445;52.490;13.378;2022-09-09T14:56:18;3.58;;;1.58;;
12762;SDS011;6445;52.490;13.378;2022-09-09T14:58:46;4.75;;;1.33;;
12762;SDS011;6445;52.490;13.378;2022-09-09T15:01:13;2.47;;;0.95;;
12762;SDS011;6445;52.490;13.378;2022-09-09T15:03:40;4.72;;;1.30;;
12762;SDS011;6445;52.490;13.378;2022-09-09T15:06:07;3.72;;;1.38;;
12762;SDS011;6445;52.490;13.378;2022-09-09T15:08:37;4.72;;;2.05;;
12762;SDS011;6445;52.490;13.378;2022-09-09T15:11:05;3.15;;;1.40;;
12762;SDS011;6445;52.490;13.378;2022-09-09T15:13:32;2.97;;;1.30;;
12762;SDS011;6445;52.490;13.378;2022-09-09T15:16:05;5.20;;;1.55;;
12762;SDS011;6445;52.490;13.378;2022-09-09T15:18:40;3.97;;;0.98;;
12762;SDS011;6445;52.490;13.378;2022-09-09T15:21:10;2.95;;;1.10;;
12762;SDS011;6445;52.490;13.378;2022-09-09T15:23:36;4.80;;;1.40;;
12762;SDS011;6445;52.490;13.378;2022-09-09T15:26:02;2.30;;;0.93;;
12762;SDS011;6445;52.490;13.378;2022-09-09T15:28:28;4.18;;;1.10;;
12762;SDS011;6445;52.490;13.378;2022-09-09T15:30:54;2.28;;;1.08;;
12762;SDS011;6445;52.490;13.378;2022-09-09T15:33:20;2.35;;;1.00;;
12762;SDS011;6445;52.490;13.378;2022-09-09T15:35:46;3.03;;;1.83;;
12762;SDS011;6445;52.490;13.378;2022-09-09T15:38:12;3.10;;;1.20;;
12762;SDS011;6445;52.490;13.378;2022-09-09T15:40:38;1.70;;;1.15;;
12762;SDS011;6445;52.490;13.378;2022-09-09T15:43:04;5.38;;;1.77;;
12762;SDS011;6445;52.490;13.378;2022-09-09T15:45:31;2.67;;;1.60;;
12762;SDS011;6445;52.490;13.378;2022-09-09T15:47:57;2.80;;;1.00;;
12762;SDS011;6445;52.490;13.378;2022-09-09T15:50:22;2.60;;;1.50;;
12762;SDS011;6445;52.490;13.378;2022-09-09T15:52:48;2.83;;;1.17;;
12762;SDS011;6445;52.490;13.378;2022-09-09T15:55:13;2.08;;;1.10;;
12762;SDS011;6445;52.490;13.378;2022-09-09T15:57:38;22.60;;;17.15;;
12762;SDS011;6445;52.490;13.378;2022-09-09T16:00:03;4.07;;;1.50;;
12762;SDS011;6445;52.490;13.378;2022-09-09T16:02:31;4.38;;;1.50;;
12762;SDS011;6445;52.490;13.378;2022-09-09T16:04:56;4.00;;;1.20;;
12762;SDS011;6445;52.490;13.378;2022-09-09T16:07:30;4.95;;;1.20;;
12762;SDS011;6445;52.490;13.378;2022-09-09T16:09:55;3.72;;;1.33;;
12762;SDS011;6445;52.490;13.378;2022-09-09T16:12:21;3.85;;;1.67;;
12762;SDS011;6445;52.490;13.378;2022-09-09T16:14:46;2.58;;;1.40;;
12762;SDS011;6445;52.490;13.378;2022-09-09T16:17:11;5.05;;;1.40;;
12762;SDS011;6445;52.490;13.378;2022-09-09T16:19:37;3.80;;;1.20;;
12762;SDS011;6445;52.490;13.378;2022-09-09T16:22:02;2.38;;;0.98;;
12762;SDS011;6445;52.490;13.378;2022-09-09T16:24:29;2.88;;;1.38;;
12762;SDS011;6445;52.490;13.378;2022-09-09T16:26:54;2.33;;;1.10;;